sensor_id;sensor_type;location;lat;lon;timestamp;pressure;altitude;pressure_sealevel;temperature;humidity
69035;BME280;56091;55.756;37.412;2022-08-21T00:02:14;99896.38;;;18.59;39.11
69035;BME280;56091;55.756;37.412;2022-08-21T00:07:17;99906.47;;;18.59;39.51
69035;BME280;56091;55.756;37.412;2022-08-21T00:12:18;99903.91;;;18.48;39.69
69035;BME280;56091;55.756;37.412;2022-08-21T00:17:19;99902.03;;;18.44;39.60
69035;BME280;56091;55.756;37.412;2022-08-21T00:22:20;99892.28;;;18.38;39.25
69035;BME280;56091;55.756;37.412;2022-08-21T00:27:21;99901.06;;;18.34;40.01
69035;BME280;56091;55.756;37.412;2022-08-21T00:32:23;99896.47;;;18.30;39.72
69035;BME280;56091;55.756;37.412;2022-08-21T00:37:25;99899.72;;;18.32;39.86
69035;BME280;56091;55.756;37.412;2022-08-21T00:42:28;99889.91;;;18.31;39.65
69035;BME280;56091;55.756;37.412;2022-08-21T00:47:30;99883.19;;;18.23;39.80
69035;BME280;56091;55.756;37.412;2022-08-21T00:52:33;99880.03;;;18.11;40.11
69035;BME280;56091;55.756;37.412;2022-08-21T00:57:39;99877.13;;;18.02;40.46
69035;BME280;56091;55.756;37.412;2022-08-21T01:02:41;99892.50;;;18.17;40.36
69035;BME280;56091;55.756;37.412;2022-08-21T01:07:44;99879.56;;;18.04;40.03
69035;BME280;56091;55.756;37.412;2022-08-21T01:12:45;99888.66;;;17.94;40.45
69035;BME280;56091;55.756;37.412;2022-08-21T01:17:47;99890.59;;;17.93;40.34
69035;BME280;56091;55.756;37.412;2022-08-21T01:22:49;99890.91;;;17.87;40.45
69035;BME280;56091;55.756;37.412;2022-08-21T01:27:51;99893.44;;;17.78;41.09
69035;BME280;56091;55.756;37.412;2022-08-21T01:32:53;99885.13;;;17.64;41.00
69035;BME280;56091;55.756;37.412;2022-08-21T01:37:54;99890.63;;;17.59;41.47
69035;BME280;56091;55.756;37.412;2022-08-21T01:42:55;99882.81;;;17.47;41.69
69035;BME280;56091;55.756;37.412;2022-08-21T01:47:56;99880.41;;;17.41;42.01
69035;BME280;56091;55.756;37.412;2022-08-21T01:52:57;99880.16;;;17.37;42.03
69035;BME280;56091;55.756;37.412;2022-08-21T01:57:59;99887.00;;;17.34;42.09
69035;BME280;56091;55.756;37.412;2022-08-21T02:02:59;99884.84;;;17.31;42.31
69035;BME280;56091;55.756;37.412;2022-08-21T02:08:00;99878.38;;;17.22;42.31
69035;BME280;56091;55.756;37.412;2022-08-21T02:13:02;99889.53;;;17.26;42.36
69035;BME280;56091;55.756;37.412;2022-08-21T02:18:05;99885.50;;;17.18;42.45
69035;BME280;56091;55.756;37.412;2022-08-21T02:23:08;99887.66;;;17.21;41.79
69035;BME280;56091;55.756;37.412;2022-08-21T02:28:12;99881.94;;;17.23;42.05
69035;BME280;56091;55.756;37.412;2022-08-21T02:33:14;99879.22;;;17.23;41.71
69035;BME280;56091;55.756;37.412;2022-08-21T02:38:18;99878.97;;;17.19;41.99
69035;BME280;56091;55.756;37.412;2022-08-21T02:43:21;99891.72;;;17.24;42.37
69035;BME280;56091;55.756;37.412;2022-08-21T02:48:26;99891.69;;;17.29;41.98
69035;BME280;56091;55.756;37.412;2022-08-21T02:53:28;99898.22;;;17.28;41.60
69035;BME280;56091;55.756;37.412;2022-08-21T02:58:51;99899.53;;;17.35;41.77
69035;BME280;56091;55.756;37.412;2022-08-21T03:03:53;99897.28;;;17.43;42.11
69035;BME280;56091;55.756;37.412;2022-08-21T03:08:54;99884.78;;;17.42;41.34
69035;BME280;56091;55.756;37.412;2022-08-21T03:13:54;99904.53;;;17.58;41.63
69035;BME280;56091;55.756;37.412;2022-08-21T03:18:55;99919.47;;;17.65;41.12
69035;BME280;56091;55.756;37.412;2022-08-21T03:23:56;99906.84;;;17.74;40.67
69035;BME280;56091;55.756;37.412;2022-08-21T03:28:59;99913.06;;;17.85;40.46
69035;BME280;56091;55.756;37.412;2022-08-21T03:34:00;99916.56;;;17.91;40.17
69035;BME280;56091;55.756;37.412;2022-08-21T03:39:02;99913.75;;;17.96;40.01
69035;BME280;56091;55.756;37.412;2022-08-21T03:44:03;99919.88;;;18.12;40.09
69035;BME280;56091;55.756;37.412;2022-08-21T03:49:03;99919.53;;;18.19;39.77
69035;BME280;56091;55.756;37.412;2022-08-21T03:54:04;99901.94;;;18.30;39.18
69035;BME280;56091;55.756;37.412;2022-08-21T03:59:05;99917.84;;;18.47;39.20
69035;BME280;56091;55.756;37.412;2022-08-21T04:04:06;99924.47;;;18.65;39.19
69035;BME280;56091;55.756;37.412;2022-08-21T04:09:07;99909.25;;;18.78;38.27
69035;BME280;56091;55.756;37.412;2022-08-21T04:14:09;99906.41;;;18.88;38.51
69035;BME280;56091;55.756;37.412;2022-08-21T04:19:13;99894.88;;;18.91;38.45
69035;BME280;56091;55.756;37.412;2022-08-21T04:24:14;99907.50;;;19.06;38.47
69035;BME280;56091;55.756;37.412;2022-08-21T04:29:15;99911.72;;;19.17;38.23
69035;BME280;56091;55.756;37.412;2022-08-21T04:34:15;99903.00;;;19.15;36.86
69035;BME280;56091;55.756;37.412;2022-08-21T04:39:16;99897.06;;;19.27;37.22
69035;BME280;56091;55.756;37.412;2022-08-21T04:44:17;99913.16;;;19.47;36.70
69035;BME280;56091;55.756;37.412;2022-08-21T04:49:18;99913.38;;;19.51;36.30
69035;BME280;56091;55.756;37.412;2022-08-21T04:54:21;99913.56;;;19.74;36.08
69035;BME280;56091;55.756;37.412;2022-08-21T04:59:29;99915.03;;;19.99;36.26
69035;BME280;56091;55.756;37.412;2022-08-21T05:04:34;99889.19;;;20.05;34.83
69035;BME280;56091;55.756;37.412;2022-08-21T05:09:40;99896.59;;;20.18;34.88
69035;BME280;56091;55.756;37.412;2022-08-21T05:14:41;99901.25;;;20.32;35.09
69035;BME280;56091;55.756;37.412;2022-08-21T05:19:42;99903.09;;;20.22;35.12
69035;BME280;56091;55.756;37.412;2022-08-21T05:24:43;99912.53;;;20.30;35.18
69035;BME280;56091;55.756;37.412;2022-08-21T05:29:45;99895.47;;;20.19;34.96
69035;BME280;56091;55.756;37.412;2022-08-21T05:34:45;99898.94;;;20.25;34.61
69035;BME280;56091;55.756;37.412;2022-08-21T05:39:47;99915.16;;;20.49;34.46
69035;BME280;56091;55.756;37.412;2022-08-21T05:44:47;99909.59;;;20.68;34.74
69035;BME280;56091;55.756;37.412;2022-08-21T05:49:48;99913.50;;;20.90;33.69
69035;BME280;56091;55.756;37.412;2022-08-21T05:54:52;99900.19;;;20.83;33.49
69035;BME280;56091;55.756;37.412;2022-08-21T05:59:54;99913.00;;;20.88;33.40
69035;BME280;56091;55.756;37.412;2022-08-21T06:04:56;99904.53;;;20.98;32.85
69035;BME280;56091;55.756;37.412;2022-08-21T06:09:57;99899.06;;;20.98;32.62
69035;BME280;56091;55.756;37.412;2022-08-21T06:14:58;99902.06;;;21.10;33.16
69035;BME280;56091;55.756;37.412;2022-08-21T06:19:58;99892.72;;;21.11;32.74
69035;BME280;56091;55.756;37.412;2022-08-21T06:25:05;99901.41;;;21.27;32.57
69035;BME280;56091;55.756;37.412;2022-08-21T06:30:06;99892.22;;;21.32;31.77
69035;BME280;56091;55.756;37.412;2022-08-21T06:35:08;99893.00;;;21.46;32.03
69035;BME280;56091;55.756;37.412;2022-08-21T06:40:10;99890.50;;;21.58;31.87
69035;BME280;56091;55.756;37.412;2022-08-21T06:45:11;99889.75;;;21.67;31.57
69035;BME280;56091;55.756;37.412;2022-08-21T06:50:12;99886.38;;;21.70;31.31
69035;BME280;56091;55.756;37.412;2022-08-21T06:55:13;99874.00;;;21.81;31.50
69035;BME280;56091;55.756;37.412;2022-08-21T07:00:14;99896.88;;;22.08;30.70
69035;BME280;56091;55.756;37.412;2022-08-21T07:05:15;99889.03;;;22.23;30.45
69035;BME280;56091;55.756;37.412;2022-08-21T07:10:16;99874.47;;;22.23;30.24
69035;BME280;56091;55.756;37.412;2022-08-21T07:15:16;99881.06;;;22.53;30.49
69035;BME280;56091;55.756;37.412;2022-08-21T07:20:17;99831.72;;;22.39;30.15
69035;BME280;56091;55.756;37.412;2022-08-21T07:25:18;99871.38;;;22.65;29.58
69035;BME280;56091;55.756;37.412;2022-08-21T07:30:19;99859.59;;;22.90;29.27
69035;BME280;56091;55.756;37.412;2022-08-21T07:35:22;99868.19;;;22.97;28.68
69035;BME280;56091;55.756;37.412;2022-08-21T07:40:23;99872.56;;;23.16;28.04
69035;BME280;56091;55.756;37.412;2022-08-21T07:45:27;99866.72;;;23.35;27.43
69035;BME280;56091;55.756;37.412;2022-08-21T07:50:27;99865.53;;;23.53;27.46
69035;BME280;56091;55.756;37.412;2022-08-21T07:55:28;99861.63;;;23.63;27.48
69035;BME280;56091;55.756;37.412;2022-08-21T08:00:29;99851.41;;;23.81;26.86
69035;BME280;56091;55.756;37.412;2022-08-21T08:05:31;99857.06;;;23.85;26.68
69035;BME280;56091;55.756;37.412;2022-08-21T08:10:32;99851.97;;;24.04;25.92
69035;BME280;56091;55.756;37.412;2022-08-21T08:15:33;99824.09;;;24.06;26.26
69035;BME280;56091;55.756;37.412;2022-08-21T08:20:35;99838.19;;;24.34;26.18
69035;BME280;56091;55.756;37.412;2022-08-21T08:25:36;99831.47;;;24.44;25.67
69035;BME280;56091;55.756;37.412;2022-08-21T08:30:40;99831.09;;;24.54;24.78
69035;BME280;56091;55.756;37.412;2022-08-21T08:35:42;99830.50;;;24.69;24.80
69035;BME280;56091;55.756;37.412;2022-08-21T08:41:10;99833.84;;;24.96;24.46
69035;BME280;56091;55.756;37.412;2022-08-21T08:46:15;99819.59;;;24.94;24.71
69035;BME280;56091;55.756;37.412;2022-08-21T08:51:25;99815.41;;;25.09;24.73
69035;BME280;56091;55.756;37.412;2022-08-21T08:56:30;99824.88;;;25.20;23.38
69035;BME280;56091;55.756;37.412;2022-08-21T09:01:31;99829.47;;;25.16;23.26
69035;BME280;56091;55.756;37.412;2022-08-21T09:12:04;99827.34;;;25.34;22.37
69035;BME280;56091;55.756;37.412;2022-08-21T09:22:47;99820.44;;;25.86;22.12
69035;BME280;56091;55.756;37.412;2022-08-21T09:27:53;99830.94;;;26.29;21.87
69035;BME280;56091;55.756;37.412;2022-08-21T09:32:54;99830.78;;;26.63;21.34
69035;BME280;56091;55.756;37.412;2022-08-21T09:38:00;99835.16;;;27.04;21.67
69035;BME280;56091;55.756;37.412;2022-08-21T09:43:17;99827.06;;;27.40;21.14
69035;BME280;56091;55.756;37.412;2022-08-21T09:48:24;99820.25;;;27.37;21.38
69035;BME280;56091;55.756;37.412;2022-08-21T09:53:28;99816.94;;;27.03;20.89
69035;BME280;56091;55.756;37.412;2022-08-21T09:58:33;99825.53;;;26.86;20.77
69035;BME280;56091;55.756;37.412;2022-08-21T10:03:34;99798.31;;;26.88;20.66
69035;BME280;56091;55.756;37.412;2022-08-21T10:08:39;99815.31;;;27.02;20.28
69035;BME280;56091;55.756;37.412;2022-08-21T10:24:32;99805.84;;;27.32;19.02
69035;BME280;56091;55.756;37.412;2022-08-21T10:45:36;99795.81;;;26.83;19.63
69035;BME280;56091;55.756;37.412;2022-08-21T10:50:44;99799.97;;;26.77;20.12
69035;BME280;56091;55.756;37.412;2022-08-21T11:01:42;99770.47;;;26.28;20.81
69035;BME280;56091;55.756;37.412;2022-08-21T11:06:57;99770.25;;;26.21;20.49
69035;BME280;56091;55.756;37.412;2022-08-21T11:12:06;99777.47;;;26.25;20.60
69035;BME280;56091;55.756;37.412;2022-08-21T11:17:14;99774.59;;;26.34;21.08
69035;BME280;56091;55.756;37.412;2022-08-21T11:27:58;99787.00;;;26.53;20.37
69035;BME280;56091;55.756;37.412;2022-08-21T11:33:11;99798.88;;;26.65;20.29
69035;BME280;56091;55.756;37.412;2022-08-21T11:38:39;99791.66;;;26.77;19.62
69035;BME280;56091;55.756;37.412;2022-08-21T11:43:47;99780.97;;;26.75;20.07
69035;BME280;56091;55.756;37.412;2022-08-21T11:59:06;99762.28;;;26.19;20.85
69035;BME280;56091;55.756;37.412;2022-08-21T12:09:30;99742.28;;;25.73;21.68
69035;BME280;56091;55.756;37.412;2022-08-21T12:14:41;99744.81;;;25.66;22.32
69035;BME280;56091;55.756;37.412;2022-08-21T12:19:43;99744.44;;;25.55;22.64
69035;BME280;56091;55.756;37.412;2022-08-21T12:29:47;99740.44;;;25.40;22.70
69035;BME280;56091;55.756;37.412;2022-08-21T12:34:54;99745.72;;;25.58;22.76
69035;BME280;56091;55.756;37.412;2022-08-21T12:39:59;99743.31;;;25.56;22.69
69035;BME280;56091;55.756;37.412;2022-08-21T12:45:06;99749.19;;;25.79;22.63
69035;BME280;56091;55.756;37.412;2022-08-21T12:50:35;99741.00;;;26.07;22.13
69035;BME280;56091;55.756;37.412;2022-08-21T12:55:34;99745.31;;;26.33;21.02
69035;BME280;56091;55.756;37.412;2022-08-21T13:00:35;99733.03;;;26.59;21.69
69035;BME280;56091;55.756;37.412;2022-08-21T13:05:37;99751.16;;;26.56;21.55
69035;BME280;56091;55.756;37.412;2022-08-21T13:10:39;99738.38;;;26.64;21.92
69035;BME280;56091;55.756;37.412;2022-08-21T13:15:41;99714.97;;;26.21;21.04
69035;BME280;56091;55.756;37.412;2022-08-21T13:20:42;99730.66;;;26.04;21.79
69035;BME280;56091;55.756;37.412;2022-08-21T13:25:43;99728.34;;;26.06;22.19
69035;BME280;56091;55.756;37.412;2022-08-21T13:30:52;99737.28;;;26.28;21.73
69035;BME280;56091;55.756;37.412;2022-08-21T13:41:04;99735.34;;;26.57;21.51
69035;BME280;56091;55.756;37.412;2022-08-21T13:46:10;99727.34;;;26.39;21.42
69035;BME280;56091;55.756;37.412;2022-08-21T13:51:12;99716.69;;;26.54;20.79
69035;BME280;56091;55.756;37.412;2022-08-21T14:07:22;99710.09;;;27.62;19.16
69035;BME280;56091;55.756;37.412;2022-08-21T14:12:34;99690.00;;;27.50;19.43
69035;BME280;56091;55.756;37.412;2022-08-21T14:17:38;99700.16;;;27.14;19.56
69035;BME280;56091;55.756;37.412;2022-08-21T14:22:46;99698.25;;;26.86;19.90
69035;BME280;56091;55.756;37.412;2022-08-21T14:28:11;99710.09;;;26.71;19.93
69035;BME280;56091;55.756;37.412;2022-08-21T14:33:26;99714.78;;;26.42;20.58
69035;BME280;56091;55.756;37.412;2022-08-21T14:38:28;99708.31;;;26.09;20.67
69035;BME280;56091;55.756;37.412;2022-08-21T14:43:32;99709.59;;;26.40;20.36
69035;BME280;56091;55.756;37.412;2022-08-21T14:48:33;99706.66;;;26.61;20.09
69035;BME280;56091;55.756;37.412;2022-08-21T14:53:34;99710.50;;;26.44;20.48
69035;BME280;56091;55.756;37.412;2022-08-21T14:58:39;99691.44;;;26.27;20.45
69035;BME280;56091;55.756;37.412;2022-08-21T15:03:41;99671.59;;;25.97;20.57
69035;BME280;56091;55.756;37.412;2022-08-21T15:08:42;99704.06;;;26.00;21.12
69035;BME280;56091;55.756;37.412;2022-08-21T15:13:43;99700.38;;;25.83;22.07
69035;BME280;56091;55.756;37.412;2022-08-21T15:18:50;99701.91;;;25.56;21.60
69035;BME280;56091;55.756;37.412;2022-08-21T15:23:52;99687.97;;;26.30;20.88
69035;BME280;56091;55.756;37.412;2022-08-21T15:28:54;99670.28;;;26.47;20.25
69035;BME280;56091;55.756;37.412;2022-08-21T15:33:55;99697.34;;;26.54;20.54
69035;BME280;56091;55.756;37.412;2022-08-21T15:38:56;99706.69;;;26.08;21.48
69035;BME280;56091;55.756;37.412;2022-08-21T15:43:57;99688.88;;;25.69;21.61
69035;BME280;56091;55.756;37.412;2022-08-21T15:48:58;99713.03;;;25.35;21.78
69035;BME280;56091;55.756;37.412;2022-08-21T15:53:59;99694.13;;;25.12;22.19
69035;BME280;56091;55.756;37.412;2022-08-21T15:59:05;99688.81;;;24.95;22.78
69035;BME280;56091;55.756;37.412;2022-08-21T16:04:07;99686.44;;;24.72;22.98
69035;BME280;56091;55.756;37.412;2022-08-21T16:09:08;99678.50;;;24.50;23.13
69035;BME280;56091;55.756;37.412;2022-08-21T16:14:11;99672.47;;;24.35;23.55
69035;BME280;56091;55.756;37.412;2022-08-21T16:19:15;99679.53;;;24.24;23.92
69035;BME280;56091;55.756;37.412;2022-08-21T16:24:16;99677.66;;;24.16;23.90
69035;BME280;56091;55.756;37.412;2022-08-21T16:29:18;99676.91;;;24.07;24.48
69035;BME280;56091;55.756;37.412;2022-08-21T16:34:19;99659.03;;;23.92;24.58
69035;BME280;56091;55.756;37.412;2022-08-21T16:39:20;99668.59;;;23.94;24.79
69035;BME280;56091;55.756;37.412;2022-08-21T16:44:21;99654.88;;;23.86;25.01
69035;BME280;56091;55.756;37.412;2022-08-21T16:49:22;99668.97;;;23.84;25.51
69035;BME280;56091;55.756;37.412;2022-08-21T16:54:23;99606.38;;;23.43;25.22
69035;BME280;56091;55.756;37.412;2022-08-21T16:59:24;99668.66;;;23.77;25.70
69035;BME280;56091;55.756;37.412;2022-08-21T17:04:25;99677.13;;;23.72;25.60
69035;BME280;56091;55.756;37.412;2022-08-21T17:09:27;99663.41;;;23.63;26.21
69035;BME280;56091;55.756;37.412;2022-08-21T17:14:28;99677.72;;;23.56;26.29
69035;BME280;56091;55.756;37.412;2022-08-21T17:19:32;99685.03;;;23.52;26.86
69035;BME280;56091;55.756;37.412;2022-08-21T17:24:34;99677.75;;;23.48;26.67
69035;BME280;56091;55.756;37.412;2022-08-21T17:29:37;99672.28;;;23.39;26.95
69035;BME280;56091;55.756;37.412;2022-08-21T17:34:39;99687.66;;;23.40;27.44
69035;BME280;56091;55.756;37.412;2022-08-21T17:39:40;99680.06;;;23.37;27.25
69035;BME280;56091;55.756;37.412;2022-08-21T17:44:43;99692.50;;;23.43;27.11
69035;BME280;56091;55.756;37.412;2022-08-21T17:49:44;99693.97;;;23.41;27.04
69035;BME280;56091;55.756;37.412;2022-08-21T17:54:45;99683.66;;;23.29;27.04
69035;BME280;56091;55.756;37.412;2022-08-21T17:59:46;99682.56;;;23.21;26.97
69035;BME280;56091;55.756;37.412;2022-08-21T18:04:48;99706.63;;;23.33;27.61
69035;BME280;56091;55.756;37.412;2022-08-21T18:09:50;99703.72;;;23.29;27.68
69035;BME280;56091;55.756;37.412;2022-08-21T18:14:52;99697.94;;;23.22;27.59
69035;BME280;56091;55.756;37.412;2022-08-21T18:19:55;99703.13;;;23.15;27.41
69035;BME280;56091;55.756;37.412;2022-08-21T18:24:59;99694.25;;;23.09;27.77
69035;BME280;56091;55.756;37.412;2022-08-21T18:30:03;99695.38;;;22.99;28.31
69035;BME280;56091;55.756;37.412;2022-08-21T18:35:05;99699.78;;;22.92;28.27
69035;BME280;56091;55.756;37.412;2022-08-21T18:40:07;99706.75;;;22.80;28.42
69035;BME280;56091;55.756;37.412;2022-08-21T18:45:12;99711.47;;;22.71;28.57
69035;BME280;56091;55.756;37.412;2022-08-21T18:50:18;99704.00;;;22.63;29.12
69035;BME280;56091;55.756;37.412;2022-08-21T18:55:21;99710.50;;;22.58;29.27
69035;BME280;56091;55.756;37.412;2022-08-21T19:00:28;99691.59;;;22.48;29.14
69035;BME280;56091;55.756;37.412;2022-08-21T19:05:29;99708.72;;;22.54;29.59
69035;BME280;56091;55.756;37.412;2022-08-21T19:10:30;99704.53;;;22.56;29.72
69035;BME280;56091;55.756;37.412;2022-08-21T19:15:33;99707.09;;;22.61;29.41
69035;BME280;56091;55.756;37.412;2022-08-21T19:20:35;99694.16;;;22.53;29.66
69035;BME280;56091;55.756;37.412;2022-08-21T19:25:37;99717.63;;;22.59;29.77
69035;BME280;56091;55.756;37.412;2022-08-21T19:30:43;99693.03;;;22.46;29.54
69035;BME280;56091;55.756;37.412;2022-08-21T19:35:45;99709.06;;;22.52;29.77
69035;BME280;56091;55.756;37.412;2022-08-21T19:40:47;99712.44;;;22.49;29.65
69035;BME280;56091;55.756;37.412;2022-08-21T19:45:52;99701.59;;;22.44;29.98
69035;BME280;56091;55.756;37.412;2022-08-21T19:50:53;99695.31;;;22.35;29.72
69035;BME280;56091;55.756;37.412;2022-08-21T19:55:54;99700.81;;;22.26;29.86
69035;BME280;56091;55.756;37.412;2022-08-21T20:00:55;99711.78;;;22.26;29.70
69035;BME280;56091;55.756;37.412;2022-08-21T20:05:59;99699.50;;;22.23;29.63
69035;BME280;56091;55.756;37.412;2022-08-21T20:11:00;99701.75;;;22.21;30.21
69035;BME280;56091;55.756;37.412;2022-08-21T20:16:06;99706.59;;;22.16;29.79
69035;BME280;56091;55.756;37.412;2022-08-21T20:21:08;99699.31;;;22.11;29.63
69035;BME280;56091;55.756;37.412;2022-08-21T20:26:12;99709.81;;;22.18;30.27
69035;BME280;56091;55.756;37.412;2022-08-21T20:31:14;99706.75;;;22.11;30.17
69035;BME280;56091;55.756;37.412;2022-08-21T20:36:17;99722.56;;;22.05;30.44
69035;BME280;56091;55.756;37.412;2022-08-21T20:41:20;99712.38;;;21.97;30.26
69035;BME280;56091;55.756;37.412;2022-08-21T20:46:23;99709.94;;;21.87;30.87
69035;BME280;56091;55.756;37.412;2022-08-21T20:51:41;99725.06;;;21.75;30.90
69035;BME280;56091;55.756;37.412;2022-08-21T20:56:55;99723.13;;;21.67;31.21
69035;BME280;56091;55.756;37.412;2022-08-21T21:07:16;99699.00;;;21.47;31.32
69035;BME280;56091;55.756;37.412;2022-08-21T21:12:28;99681.66;;;21.29;31.35
69035;BME280;56091;55.756;37.412;2022-08-21T21:17:39;99722.06;;;21.45;32.17
69035;BME280;56091;55.756;37.412;2022-08-21T21:22:53;99715.56;;;21.41;31.74
69035;BME280;56091;55.756;37.412;2022-08-21T21:28:13;99698.72;;;21.25;32.16
69035;BME280;56091;55.756;37.412;2022-08-21T21:33:16;99716.03;;;21.35;32.48
69035;BME280;56091;55.756;37.412;2022-08-21T21:59:35;99716.34;;;21.33;33.09
69035;BME280;56091;55.756;37.412;2022-08-21T22:05:10;99684.97;;;21.17;32.93
69035;BME280;56091;55.756;37.412;2022-08-21T22:10:42;99715.06;;;21.31;33.21
69035;BME280;56091;55.756;37.412;2022-08-21T22:15:45;99720.84;;;21.29;33.00
69035;BME280;56091;55.756;37.412;2022-08-21T22:25:51;99713.06;;;21.22;33.07
69035;BME280;56091;55.756;37.412;2022-08-21T22:30:56;99717.13;;;21.25;33.43
69035;BME280;56091;55.756;37.412;2022-08-21T22:36:19;99714.81;;;21.18;33.36
69035;BME280;56091;55.756;37.412;2022-08-21T22:41:27;99715.13;;;21.17;33.65
69035;BME280;56091;55.756;37.412;2022-08-21T22:46:49;99717.75;;;21.22;33.15
69035;BME280;56091;55.756;37.412;2022-08-21T22:51:55;99716.44;;;21.19;33.29
69035;BME280;56091;55.756;37.412;2022-08-21T23:02:26;99705.25;;;21.07;33.12
69035;BME280;56091;55.756;37.412;2022-08-21T23:07:40;99726.94;;;21.17;33.30
69035;BME280;56091;55.756;37.412;2022-08-21T23:12:47;99725.28;;;21.16;33.34
69035;BME280;56091;55.756;37.412;2022-08-21T23:28:59;99724.31;;;21.12;33.71
69035;BME280;56091;55.756;37.412;2022-08-21T23:34:25;99727.66;;;21.09;34.02
69035;BME280;56091;55.756;37.412;2022-08-21T23:55:57;99736.19;;;20.99;34.15
